Terminal Aerodrome Forecast
Issued by NWS

Home | Current Version | Previous Version | Text Only | Print | Product List | Glossary On
Versions: 1 2 3 4 5 6 7 8 9 10 11 12 13 14 15 16 17 18 19 20 21 22 23
000
FTUS43 KILX 310219 AAB
TAFDEC
TAF AMD
KDEC 310219Z 3102/3124 VRB05KT P6SM VCTS FEW070CB BKN200
      TEMPO 3102/3103 5SM TSRA BKN070CB
     FM310330 VRB05KT P6SM SCT120 BKN200
     FM311800 16006KT P6SM VCTS SCT050CB BKN100=

USA.gov is the U.S. government's official web portal to all federal, state and local government web resources and services.